createdAt,value
2023-02-25T00:01:34.626Z,13.20
2023-02-25T00:04:02.047Z,11.18
2023-02-25T00:06:29.388Z,8.88
2023-02-25T00:08:56.700Z,11.38
2023-02-25T00:11:25.993Z,12.82
2023-02-25T00:13:54.042Z,8.10
2023-02-25T00:16:23.586Z,9.93
2023-02-25T00:18:58.459Z,11.32
2023-02-25T00:23:53.616Z,9.18
2023-02-25T00:26:21.752Z,8.82
2023-02-25T00:28:50.030Z,11.43
2023-02-25T00:31:20.123Z,13.40
2023-02-25T00:33:48.183Z,15.80
2023-02-25T00:36:20.230Z,14.65
2023-02-25T00:38:49.236Z,10.55
2023-02-25T00:41:19.776Z,12.15
2023-02-25T00:43:52.686Z,13.23
2023-02-25T00:46:20.781Z,12.25
2023-02-25T00:48:48.568Z,10.80
2023-02-25T00:51:21.689Z,12.55
2023-02-25T00:53:50.421Z,9.45
2023-02-25T00:56:20.080Z,9.65
2023-02-25T00:58:49.270Z,12.02
2023-02-25T01:04:12.700Z,15.48
2023-02-25T01:06:40.055Z,8.65
2023-02-25T01:09:14.125Z,12.05
2023-02-25T01:11:45.103Z,9.02
2023-02-25T01:14:15.375Z,8.55
2023-02-25T01:16:44.540Z,10.00
2023-02-25T01:19:14.574Z,11.98
2023-02-25T01:21:45.353Z,12.38
2023-02-25T01:24:15.840Z,5.97
2023-02-25T01:26:45.408Z,10.48
2023-02-25T01:29:19.982Z,10.18
2023-02-25T01:31:48.558Z,8.45
2023-02-25T01:34:17.808Z,14.55
2023-02-25T01:36:46.337Z,16.02
2023-02-25T01:39:15.352Z,10.40
2023-02-25T01:41:46.409Z,14.95
2023-02-25T01:44:17.439Z,13.20
2023-02-25T01:46:51.057Z,10.35
2023-02-25T01:49:20.613Z,7.50
2023-02-25T01:51:51.711Z,9.88
2023-02-25T01:54:20.144Z,9.18
2023-02-25T01:56:52.565Z,16.88
2023-02-25T01:59:23.083Z,15.90
2023-02-25T02:01:51.084Z,7.53
2023-02-25T02:04:19.861Z,13.00
2023-02-25T02:06:49.631Z,19.85
2023-02-25T02:09:22.751Z,13.45
2023-02-25T02:11:51.260Z,11.98
2023-02-25T02:14:27.524Z,14.30
2023-02-25T02:17:07.491Z,14.30
2023-02-25T02:19:43.633Z,10.85
2023-02-25T02:22:42.775Z,10.80
2023-02-25T02:25:57.521Z,14.43
2023-02-25T02:29:12.025Z,12.57
2023-02-25T02:32:07.654Z,9.30
2023-02-25T02:34:57.333Z,12.07
2023-02-25T02:37:42.579Z,11.40
2023-02-25T02:40:21.379Z,8.32
2023-02-25T02:43:19.920Z,15.48
2023-02-25T02:46:07.243Z,11.30
2023-02-25T02:48:43.886Z,10.23
2023-02-25T02:51:26.849Z,13.13
2023-02-25T02:53:57.878Z,8.93
2023-02-25T02:56:28.500Z,16.15
2023-02-25T02:59:07.393Z,17.30
2023-02-25T03:01:44.317Z,18.65
2023-02-25T03:04:19.754Z,10.40
2023-02-25T03:06:54.947Z,9.30
2023-02-25T03:09:36.352Z,12.68
2023-02-25T03:12:03.834Z,9.70
2023-02-25T03:14:34.119Z,13.15
2023-02-25T03:17:08.998Z,9.35
2023-02-25T03:19:42.090Z,10.02
2023-02-25T03:22:16.575Z,15.15
2023-02-25T03:24:57.572Z,14.10
2023-02-25T03:27:37.143Z,10.68
2023-02-25T03:30:13.008Z,15.98
2023-02-25T03:32:44.938Z,15.50
2023-02-25T03:35:14.881Z,12.85
2023-02-25T03:37:44.189Z,8.40
2023-02-25T03:40:14.343Z,8.50
2023-02-25T03:42:49.392Z,12.80
2023-02-25T03:45:18.152Z,13.65
2023-02-25T03:47:45.862Z,17.33
2023-02-25T03:50:22.272Z,12.55
2023-02-25T03:52:54.806Z,12.48
2023-02-25T03:55:48.966Z,9.15
2023-02-25T03:58:16.372Z,9.13
2023-02-25T04:00:47.202Z,11.50
2023-02-25T04:03:14.800Z,13.07
2023-02-25T04:05:42.064Z,15.05
2023-02-25T04:08:15.793Z,13.85
2023-02-25T04:10:44.465Z,15.25
2023-02-25T04:13:14.519Z,11.85
2023-02-25T04:15:43.017Z,13.50
2023-02-25T04:18:10.318Z,10.90
2023-02-25T04:20:38.796Z,14.38
2023-02-25T04:23:06.372Z,8.93
2023-02-25T04:25:34.285Z,12.10
2023-02-25T04:28:01.508Z,11.18
2023-02-25T04:30:28.778Z,11.32
2023-02-25T04:32:56.101Z,12.55
2023-02-25T04:35:23.435Z,12.10
2023-02-25T04:37:50.677Z,11.63
2023-02-25T04:40:20.310Z,12.80
2023-02-25T04:42:48.460Z,12.07
2023-02-25T04:45:16.496Z,14.73
2023-02-25T04:47:43.978Z,10.98
2023-02-25T04:50:12.222Z,10.85
2023-02-25T04:52:39.593Z,8.10
2023-02-25T04:55:09.698Z,12.20
2023-02-25T04:57:42.226Z,11.95
2023-02-25T05:00:16.532Z,14.55
2023-02-25T05:02:43.862Z,10.80
2023-02-25T05:05:14.398Z,11.27
2023-02-25T05:07:42.014Z,10.57
2023-02-25T05:10:11.983Z,11.77
2023-02-25T05:12:39.238Z,9.43
2023-02-25T05:15:08.588Z,11.07
2023-02-25T05:17:36.216Z,11.75
2023-02-25T05:20:07.919Z,10.18
2023-02-25T05:22:35.199Z,8.20
2023-02-25T05:25:02.438Z,12.07
2023-02-25T05:27:29.723Z,13.70
2023-02-25T05:29:57.270Z,9.30
2023-02-25T05:32:24.840Z,12.00
2023-02-25T05:34:52.209Z,16.38
2023-02-25T05:37:19.519Z,11.43
2023-02-25T05:39:46.822Z,14.93
2023-02-25T05:42:14.097Z,13.35
2023-02-25T05:44:41.456Z,10.63
2023-02-25T05:47:09.056Z,10.07
2023-02-25T05:49:36.374Z,9.68
2023-02-25T05:52:03.647Z,10.63
2023-02-25T05:54:30.989Z,10.98
2023-02-25T05:56:58.269Z,10.63
2023-02-25T05:59:25.747Z,15.88
2023-02-25T06:01:53.081Z,11.20
2023-02-25T06:04:20.382Z,10.00
2023-02-25T06:06:50.212Z,12.90
2023-02-25T06:09:21.384Z,11.20
2023-02-25T06:11:48.974Z,15.50
2023-02-25T06:14:16.914Z,11.05
2023-02-25T06:16:44.538Z,14.80
2023-02-25T06:19:12.320Z,15.38
2023-02-25T06:21:39.676Z,14.52
2023-02-25T06:24:08.325Z,9.00
2023-02-25T06:26:41.633Z,14.05
2023-02-25T06:29:10.148Z,11.25
2023-02-25T06:31:37.787Z,10.82
2023-02-25T06:34:05.640Z,12.80
2023-02-25T06:36:33.445Z,10.88
2023-02-25T06:39:01.242Z,12.02
2023-02-25T06:41:28.520Z,13.13
2023-02-25T06:43:55.815Z,15.50
2023-02-25T06:46:26.457Z,14.15
2023-02-25T06:48:54.473Z,11.95
2023-02-25T06:51:22.516Z,10.93
2023-02-25T06:53:51.066Z,13.50
2023-02-25T06:56:20.256Z,14.55
2023-02-25T06:58:48.085Z,16.58
2023-02-25T07:01:16.608Z,18.65
2023-02-25T07:03:44.136Z,15.65
2023-02-25T07:06:11.807Z,14.70
2023-02-25T07:08:39.020Z,16.50
2023-02-25T07:11:18.183Z,24.85
2023-02-25T07:13:49.625Z,14.38
2023-02-25T07:16:17.651Z,15.23
2023-02-25T07:18:45.371Z,12.55
2023-02-25T07:21:13.847Z,12.88
2023-02-25T07:23:42.097Z,14.43
2023-02-25T07:26:11.518Z,14.45
2023-02-25T07:28:39.430Z,12.98
2023-02-25T07:31:15.848Z,12.30
2023-02-25T07:33:43.828Z,16.02
2023-02-25T07:36:11.707Z,12.80
2023-02-25T07:38:39.087Z,13.35
2023-02-25T07:41:14.806Z,16.58
2023-02-25T07:43:42.790Z,10.90
2023-02-25T07:46:10.733Z,11.65
2023-02-25T07:48:38.097Z,10.13
2023-02-25T07:51:11.347Z,14.65
2023-02-25T07:53:39.019Z,12.20
2023-02-25T07:56:07.581Z,13.65
2023-02-25T07:58:35.942Z,7.95
2023-02-25T08:01:11.486Z,10.18
2023-02-25T08:03:38.930Z,10.82
2023-02-25T08:06:08.158Z,11.73
2023-02-25T08:08:36.837Z,11.70
2023-02-25T08:11:12.642Z,16.17
2023-02-25T08:13:40.162Z,10.20
2023-02-25T08:16:10.121Z,9.10
2023-02-25T08:18:38.169Z,11.18
2023-02-25T08:21:05.582Z,8.50
2023-02-25T08:23:33.005Z,11.88
2023-02-25T08:26:00.838Z,12.75
2023-02-25T08:28:34.277Z,13.20
2023-02-25T08:31:04.487Z,13.40
2023-02-25T08:33:31.925Z,15.82
2023-02-25T08:36:17.618Z,10.63
2023-02-25T08:38:44.917Z,12.13
2023-02-25T08:41:12.705Z,11.45
2023-02-25T08:43:40.940Z,14.25
2023-02-25T08:46:08.933Z,10.60
2023-02-25T08:48:36.736Z,9.55
2023-02-25T08:51:08.348Z,9.82
2023-02-25T08:53:40.207Z,11.57
2023-02-25T08:56:14.371Z,15.02
2023-02-25T08:58:41.724Z,12.50
2023-02-25T09:01:14.884Z,13.52
2023-02-25T09:03:53.609Z,11.02
2023-02-25T09:06:23.606Z,10.85
2023-02-25T09:08:52.132Z,10.15
2023-02-25T09:11:20.651Z,12.35
2023-02-25T09:13:48.399Z,8.07
2023-02-25T09:16:17.303Z,13.13
2023-02-25T09:18:48.863Z,8.07
2023-02-25T09:21:16.472Z,9.20
2023-02-25T09:23:43.984Z,7.18
2023-02-25T09:26:11.732Z,8.70
2023-02-25T09:28:39.246Z,9.13
2023-02-25T09:31:06.606Z,6.72
2023-02-25T09:33:35.824Z,6.80
2023-02-25T09:36:08.552Z,8.55
2023-02-25T09:38:37.606Z,7.32
2023-02-25T09:41:33.083Z,8.68
2023-02-25T09:44:06.241Z,10.43
2023-02-25T09:46:36.403Z,6.53
2023-02-25T09:49:09.913Z,10.27
2023-02-25T09:51:41.820Z,6.72
2023-02-25T09:54:32.170Z,5.30
2023-02-25T09:57:02.532Z,10.82
2023-02-25T09:59:30.622Z,8.98
2023-02-25T10:02:22.690Z,8.73
2023-02-25T10:05:22.486Z,9.75
2023-02-25T10:08:02.680Z,9.82
2023-02-25T10:11:15.334Z,5.50
2023-02-25T10:14:00.117Z,8.00
2023-02-25T10:16:45.365Z,6.43
2023-02-25T10:19:28.705Z,7.10
2023-02-25T10:22:11.051Z,7.38
2023-02-25T10:24:46.552Z,8.50
2023-02-25T10:27:49.207Z,7.72
2023-02-25T10:30:22.649Z,5.38
2023-02-25T10:32:50.623Z,5.82
2023-02-25T10:35:25.617Z,4.93
2023-02-25T10:37:53.469Z,4.40
2023-02-25T10:40:24.449Z,6.82
2023-02-25T10:42:54.510Z,7.40
2023-02-25T10:45:28.143Z,4.57
2023-02-25T10:48:17.383Z,4.13
2023-02-25T10:51:01.006Z,5.72
2023-02-25T10:53:28.562Z,6.00
2023-02-25T10:55:56.282Z,4.85
2023-02-25T10:58:38.220Z,2.90
2023-02-25T11:01:16.181Z,3.78
2023-02-25T11:03:52.567Z,5.40
2023-02-25T11:06:25.121Z,5.50
2023-02-25T11:08:56.306Z,6.85
2023-02-25T11:11:35.921Z,6.47
2023-02-25T11:14:05.297Z,2.47
2023-02-25T11:16:38.879Z,5.28
2023-02-25T11:19:28.004Z,4.13
2023-02-25T11:21:57.867Z,9.02
2023-02-25T11:24:33.915Z,5.47
2023-02-25T11:27:04.010Z,3.60
2023-02-25T11:29:38.581Z,5.55
2023-02-25T11:34:48.763Z,4.05
2023-02-25T11:37:37.563Z,3.47
2023-02-25T11:40:25.672Z,3.67
2023-02-25T11:43:06.371Z,2.17
2023-02-25T11:45:40.326Z,7.78
2023-02-25T11:48:18.927Z,9.30
2023-02-25T11:51:16.937Z,4.60
2023-02-25T11:54:08.090Z,4.65
2023-02-25T11:56:48.647Z,2.60
2023-02-25T11:59:58.269Z,3.83
2023-02-25T12:02:45.734Z,3.83
2023-02-25T12:05:43.612Z,5.85
2023-02-25T12:08:35.288Z,4.15
2023-02-25T12:11:28.902Z,4.65
2023-02-25T12:14:05.290Z,4.90
2023-02-25T12:17:06.865Z,4.25
2023-02-25T12:19:49.081Z,3.92
2023-02-25T12:22:34.254Z,3.50
2023-02-25T12:25:20.275Z,4.95
2023-02-25T12:27:59.528Z,3.45
2023-02-25T12:31:04.634Z,2.58
2023-02-25T12:34:09.465Z,3.03
2023-02-25T12:36:46.494Z,3.55
2023-02-25T12:39:26.618Z,6.50
2023-02-25T12:42:18.127Z,3.25
2023-02-25T12:44:59.616Z,2.72
2023-02-25T12:47:54.965Z,4.03
2023-02-25T12:50:38.381Z,3.05
2023-02-25T12:53:45.285Z,4.50
2023-02-25T12:56:30.328Z,3.20
2023-02-25T13:02:16.136Z,4.13
2023-02-25T13:05:01.494Z,3.25
2023-02-25T13:07:31.834Z,6.38
2023-02-25T13:10:20.418Z,5.82
2023-02-25T13:13:02.806Z,6.53
2023-02-25T13:15:56.363Z,8.57
2023-02-25T13:18:50.575Z,2.85
2023-02-25T13:21:48.296Z,5.25
2023-02-25T13:24:41.697Z,4.68
2023-02-25T13:27:51.762Z,5.45
2023-02-25T13:30:35.435Z,2.35
2023-02-25T13:33:33.954Z,8.82
2023-02-25T13:36:07.093Z,1.98
2023-02-25T13:38:43.322Z,6.13
2023-02-25T13:41:30.113Z,4.82
2023-02-25T13:44:31.022Z,7.70
2023-02-25T13:47:07.157Z,3.92
2023-02-25T13:49:55.791Z,7.03
2023-02-25T13:52:42.220Z,4.80
2023-02-25T13:55:46.265Z,6.32
2023-02-25T13:58:59.345Z,3.60
2023-02-25T14:01:32.707Z,6.05
2023-02-25T14:04:24.020Z,4.07
2023-02-25T14:07:17.060Z,3.60
2023-02-25T14:09:47.398Z,2.85
2023-02-25T14:12:39.074Z,3.83
2023-02-25T14:15:27.465Z,2.15
2023-02-25T14:18:12.253Z,3.15
2023-02-25T14:20:45.577Z,2.45
2023-02-25T14:23:30.946Z,4.05
2023-02-25T14:26:19.811Z,2.42
2023-02-25T14:29:20.761Z,4.47
2023-02-25T14:32:14.836Z,2.00
2023-02-25T14:34:57.343Z,5.95
2023-02-25T14:37:47.848Z,2.97
2023-02-25T14:40:27.262Z,3.92
2023-02-25T14:43:04.571Z,4.53
2023-02-25T14:46:14.698Z,3.60
2023-02-25T14:49:00.371Z,3.53
2023-02-25T14:51:40.201Z,3.28
2023-02-25T14:54:26.390Z,2.50
2023-02-25T14:57:20.431Z,3.78
2023-02-25T15:00:09.646Z,3.47
2023-02-25T15:02:50.216Z,2.10
2023-02-25T15:05:56.332Z,2.55
2023-02-25T15:08:35.396Z,2.95
2023-02-25T15:11:28.923Z,2.13
2023-02-25T15:14:25.545Z,2.28
2023-02-25T15:17:14.480Z,4.68
2023-02-25T15:20:29.153Z,1.73
2023-02-25T15:23:07.713Z,5.38
2023-02-25T15:25:50.641Z,2.53
2023-02-25T15:28:30.177Z,2.80
2023-02-25T15:31:00.842Z,8.13
2023-02-25T15:33:38.233Z,2.58
2023-02-25T15:36:14.633Z,1.20
2023-02-25T15:38:50.692Z,3.40
2023-02-25T15:41:26.810Z,4.05
2023-02-25T15:43:54.216Z,2.10
2023-02-25T15:46:34.013Z,3.00
2023-02-25T15:49:33.062Z,4.38
2023-02-25T15:52:04.767Z,2.85
2023-02-25T15:54:32.087Z,2.58
2023-02-25T15:57:01.305Z,3.50
2023-02-25T15:59:52.794Z,1.83
2023-02-25T16:02:29.003Z,4.75
2023-02-25T16:05:09.936Z,5.10
2023-02-25T16:07:41.124Z,2.67
2023-02-25T16:10:30.867Z,1.55
2023-02-25T16:12:58.617Z,3.15
2023-02-25T16:15:32.923Z,3.60
2023-02-25T16:18:17.418Z,3.88
2023-02-25T16:20:51.343Z,4.88
2023-02-25T16:23:19.814Z,2.47
2023-02-25T16:26:13.537Z,4.78
2023-02-25T16:28:54.802Z,4.72
2023-02-25T16:31:29.414Z,4.47
2023-02-25T16:36:39.597Z,3.20
2023-02-25T16:39:20.042Z,1.70
2023-02-25T16:41:47.922Z,1.15
2023-02-25T16:44:31.081Z,3.83
2023-02-25T16:46:58.574Z,2.78
2023-02-25T16:49:40.259Z,3.15
2023-02-25T16:52:07.887Z,2.10
2023-02-25T16:54:38.469Z,2.85
2023-02-25T16:57:09.639Z,2.10
2023-02-25T16:59:38.491Z,4.25
2023-02-25T17:02:17.540Z,2.90
2023-02-25T17:04:55.898Z,5.75
2023-02-25T17:07:25.249Z,2.45
2023-02-25T17:10:04.435Z,2.35
2023-02-25T17:12:45.760Z,3.42
2023-02-25T17:15:22.087Z,6.03
2023-02-25T17:17:56.331Z,4.55
2023-02-25T17:20:27.703Z,5.18
2023-02-25T17:22:56.858Z,6.45
2023-02-25T17:25:32.359Z,5.13
2023-02-25T17:28:00.013Z,5.57
2023-02-25T17:30:33.581Z,5.20
2023-02-25T17:33:01.158Z,6.68
2023-02-25T17:35:28.672Z,2.58
2023-02-25T17:37:56.972Z,5.03
2023-02-25T17:40:27.080Z,3.95
2023-02-25T17:43:24.644Z,5.05
2023-02-25T17:45:56.797Z,6.75
2023-02-25T17:48:27.166Z,3.17
2023-02-25T17:51:07.770Z,5.80
2023-02-25T17:53:39.119Z,5.18
2023-02-25T17:56:13.814Z,5.47
2023-02-25T17:58:41.656Z,3.38
2023-02-25T18:01:20.115Z,5.03
2023-02-25T18:03:47.792Z,6.28
2023-02-25T18:06:43.727Z,3.40
2023-02-25T18:09:38.438Z,4.00
2023-02-25T18:12:34.404Z,4.15
2023-02-25T18:15:26.990Z,4.25
2023-02-25T18:17:56.753Z,4.32
2023-02-25T18:20:30.262Z,3.33
2023-02-25T18:23:06.394Z,3.23
2023-02-25T18:25:40.905Z,8.10
2023-02-25T18:30:43.577Z,7.15
2023-02-25T18:33:11.835Z,3.20
2023-02-25T18:35:42.388Z,6.35
2023-02-25T18:38:17.462Z,5.88
2023-02-25T18:40:47.374Z,4.80
2023-02-25T18:43:19.363Z,4.60
2023-02-25T18:45:47.548Z,5.28
2023-02-25T18:48:15.085Z,6.38
2023-02-25T18:50:44.465Z,3.72
2023-02-25T18:53:18.127Z,6.28
2023-02-25T18:55:45.854Z,5.63
2023-02-25T18:58:14.678Z,3.92
2023-02-25T19:00:44.309Z,8.35
2023-02-25T19:03:15.906Z,8.57
2023-02-25T19:05:43.947Z,4.20
2023-02-25T19:08:16.525Z,10.45
2023-02-25T19:10:44.897Z,10.48
2023-02-25T19:13:28.012Z,10.65
2023-02-25T19:15:55.740Z,5.00
2023-02-25T19:18:23.401Z,8.43
2023-02-25T19:20:50.746Z,7.68
2023-02-25T19:23:18.680Z,6.78
2023-02-25T19:25:48.042Z,8.10
2023-02-25T19:28:15.856Z,6.65
2023-02-25T19:30:44.633Z,8.85
2023-02-25T19:33:14.117Z,4.70
2023-02-25T19:35:43.179Z,5.88
2023-02-25T19:38:17.240Z,9.55
2023-02-25T19:40:46.375Z,9.10
2023-02-25T19:43:15.164Z,8.93
2023-02-25T19:45:43.231Z,7.15
2023-02-25T19:48:10.802Z,7.07
2023-02-25T19:50:41.309Z,6.25
2023-02-25T19:53:09.146Z,7.70
2023-02-25T19:55:37.491Z,7.15
2023-02-25T19:58:05.679Z,9.38
2023-02-25T20:00:33.091Z,6.47
2023-02-25T20:03:00.519Z,6.72
2023-02-25T20:05:27.914Z,3.78
2023-02-25T20:07:55.171Z,7.82
2023-02-25T20:10:22.468Z,5.90
2023-02-25T20:12:49.859Z,6.90
2023-02-25T20:15:17.304Z,5.50
2023-02-25T20:17:45.519Z,7.63
2023-02-25T20:20:14.669Z,7.65
2023-02-25T20:22:42.407Z,6.18
2023-02-25T20:25:11.506Z,8.70
2023-02-25T20:27:43.231Z,4.35
2023-02-25T20:30:14.433Z,1.98
2023-02-25T20:32:44.085Z,4.00
2023-02-25T20:35:21.370Z,10.52
2023-02-25T20:38:13.785Z,3.67
2023-02-25T20:40:41.393Z,5.50
2023-02-25T20:43:10.619Z,10.88
2023-02-25T20:45:38.382Z,5.18
2023-02-25T20:48:06.000Z,5.53
2023-02-25T20:50:38.209Z,5.68
2023-02-25T20:53:05.660Z,4.75
2023-02-25T20:55:33.061Z,6.57
2023-02-25T20:58:00.556Z,5.30
2023-02-25T21:00:27.890Z,7.38
2023-02-25T21:02:55.281Z,5.55
2023-02-25T21:05:22.619Z,3.95
2023-02-25T21:07:51.062Z,7.03
2023-02-25T21:10:19.356Z,5.20
2023-02-25T21:12:46.737Z,5.47
2023-02-25T21:15:14.105Z,3.40
2023-02-25T21:17:42.234Z,3.20
2023-02-25T21:20:11.347Z,4.85
2023-02-25T21:22:38.649Z,5.78
2023-02-25T21:25:06.181Z,7.10
2023-02-25T21:27:34.876Z,8.18
2023-02-25T21:30:02.998Z,6.28
2023-02-25T21:32:30.311Z,6.65
2023-02-25T21:34:57.632Z,6.05
2023-02-25T21:37:24.944Z,3.60
2023-02-25T21:39:52.266Z,8.77
2023-02-25T21:42:19.664Z,5.07
2023-02-25T21:44:46.957Z,4.97
2023-02-25T21:47:14.247Z,7.25
2023-02-25T21:49:41.561Z,5.45
2023-02-25T21:52:08.881Z,7.45
2023-02-25T21:54:36.223Z,4.60
2023-02-25T21:57:03.571Z,9.50
2023-02-25T21:59:31.536Z,6.82
2023-02-25T22:01:58.859Z,4.57
2023-02-25T22:04:26.144Z,10.00
2023-02-25T22:06:53.412Z,5.90
2023-02-25T22:09:20.686Z,5.00
2023-02-25T22:11:48.030Z,6.43
2023-02-25T22:14:15.239Z,5.32
2023-02-25T22:16:42.623Z,5.30
2023-02-25T22:19:09.927Z,5.40
2023-02-25T22:21:37.278Z,11.35
2023-02-25T22:24:05.471Z,8.85
2023-02-25T22:26:35.030Z,8.30
2023-02-25T22:29:07.880Z,4.88
2023-02-25T22:31:35.910Z,7.65
2023-02-25T22:34:03.715Z,5.95
2023-02-25T22:36:31.017Z,8.05
2023-02-25T22:38:58.450Z,14.73
2023-02-25T22:41:29.126Z,4.10
2023-02-25T22:43:58.488Z,5.28
2023-02-25T22:46:30.713Z,9.93
2023-02-25T22:48:58.523Z,9.80
2023-02-25T22:51:28.506Z,8.27
2023-02-25T22:53:56.303Z,6.50
2023-02-25T22:56:24.752Z,7.15
2023-02-25T22:58:52.486Z,6.63
2023-02-25T23:01:21.408Z,6.38
2023-02-25T23:03:50.048Z,7.55
2023-02-25T23:06:20.261Z,8.95
2023-02-25T23:08:48.092Z,8.38
2023-02-25T23:11:17.339Z,4.47
2023-02-25T23:13:48.730Z,6.90
2023-02-25T23:16:21.870Z,8.90
2023-02-25T23:18:50.144Z,6.88
2023-02-25T23:21:22.031Z,4.88
2023-02-25T23:23:51.791Z,6.05
2023-02-25T23:26:23.243Z,7.70
2023-02-25T23:28:59.135Z,8.02
2023-02-25T23:31:29.758Z,9.13
2023-02-25T23:34:08.779Z,5.65
2023-02-25T23:36:37.812Z,4.68
2023-02-25T23:39:07.762Z,8.23
2023-02-25T23:41:36.208Z,9.55
2023-02-25T23:44:04.257Z,7.00
2023-02-25T23:46:32.133Z,10.65
2023-02-25T23:49:02.206Z,11.35
2023-02-25T23:51:29.999Z,7.85
2023-02-25T23:54:00.227Z,5.63
2023-02-25T23:56:28.993Z,11.25
2023-02-25T23:58:57.021Z,4.32
